Time;durP1;ratioP1;P1;durP2;ratioP2;P2;SDS_P1;SDS_P2;PMS_P1;PMS_P2;Temp;Humidity;BMP_temperature;BMP_pressure;BME280_temperature;BME280_humidity;BME280_pressure;Samples;Min_cycle;Max_cycle;Signal;HPM_P1;HPM_P2
2022/10/11 00:00:35;;;;;;;8.23;3.92;;;;;;;;;;5023440;28;20053;-71
2022/10/11 00:03:21;;;;;;;7.05;3.20;;;;;;;;;;5021825;28;20061;-68
2022/10/11 00:05:47;;;;;;;9.52;4.15;;;;;;;;;;5028272;28;20057;-69
2022/10/11 00:08:14;;;;;;;9.77;3.88;;;;;;;;;;5026402;28;20484;-69
2022/10/11 00:10:41;;;;;;;13.35;3.50;;;;;;;;;;5025410;28;20073;-71
2022/10/11 00:13:07;;;;;;;11.23;3.45;;;;;;;;;;5025353;28;20050;-70
2022/10/11 00:15:34;;;;;;;9.43;3.70;;;;;;;;;;5024018;28;20084;-72
2022/10/11 00:17:59;;;;;;;8.45;3.30;;;;;;;;;;5021566;28;20041;-69
2022/10/11 00:20:25;;;;;;;9.70;3.65;;;;;;;;;;5027284;28;20510;-71
2022/10/11 00:22:51;;;;;;;12.13;3.47;;;;;;;;;;5023698;28;20123;-70
2022/10/11 00:25:18;;;;;;;10.18;3.78;;;;;;;;;;5024655;28;20077;-69
2022/10/11 00:27:44;;;;;;;9.63;3.20;;;;;;;;;;5024383;28;20045;-68
2022/10/11 00:30:10;;;;;;;7.38;3.38;;;;;;;;;;5026628;28;20050;-70
2022/10/11 00:32:37;;;;;;;12.15;4.13;;;;;;;;;;5028144;28;20613;-73
2022/10/11 00:35:05;;;;;;;8.20;2.97;;;;;;;;;;5029165;28;20046;-73
2022/10/11 00:37:34;;;;;;;6.70;3.03;;;;;;;;;;5026392;28;20052;-68
2022/10/11 00:40:00;;;;;;;8.68;3.63;;;;;;;;;;5015856;28;20050;-69
2022/10/11 00:42:26;;;;;;;9.95;3.65;;;;;;;;;;5029317;28;20050;-70
2022/10/11 00:45:27;;;;;;;10.13;3.20;;;;;;;;;;5030777;28;20059;-70
2022/10/11 00:48:01;;;;;;;11.32;4.22;;;;;;;;;;5029714;28;20053;-70
2022/10/11 00:50:29;;;;;;;10.57;3.63;;;;;;;;;;5031391;28;20479;-73
2022/10/11 00:52:59;;;;;;;7.40;3.88;;;;;;;;;;5026670;28;20049;-72
2022/10/11 00:55:30;;;;;;;8.40;3.40;;;;;;;;;;5030170;28;20840;-67
2022/10/11 00:57:57;;;;;;;8.90;4.18;;;;;;;;;;5029173;28;20053;-71
2022/10/11 01:00:23;;;;;;;12.57;3.65;;;;;;;;;;5031484;28;20435;-70
2022/10/11 01:02:49;;;;;;;10.30;3.90;;;;;;;;;;5031227;28;20059;-67
2022/10/11 01:05:17;;;;;;;7.72;4.00;;;;;;;;;;5030609;28;20511;-71
2022/10/11 01:07:46;;;;;;;9.25;4.40;;;;;;;;;;5031398;28;20522;-72
2022/10/11 01:10:12;;;;;;;10.80;4.40;;;;;;;;;;5026386;28;20124;-69
2022/10/11 01:12:56;;;;;;;9.93;4.47;;;;;;;;;;5028708;28;20561;-72
2022/10/11 01:15:35;;;;;;;13.00;4.68;;;;;;;;;;5027211;28;20088;-72
2022/10/11 01:18:24;;;;;;;12.10;4.97;;;;;;;;;;5031441;28;20045;-72
2022/10/11 01:21:12;;;;;;;10.82;5.50;;;;;;;;;;5019879;28;20048;-70
2022/10/11 01:23:56;;;;;;;15.45;5.30;;;;;;;;;;5025791;28;20059;-72
2022/10/11 01:26:38;;;;;;;15.48;6.25;;;;;;;;;;5024504;28;20503;-73
2022/10/11 01:29:09;;;;;;;14.63;6.90;;;;;;;;;;5025361;28;20053;-71
2022/10/11 01:31:57;;;;;;;12.45;6.85;;;;;;;;;;5024027;28;20042;-70
2022/10/11 01:34:36;;;;;;;17.77;7.65;;;;;;;;;;5023902;28;20384;-71
2022/10/11 01:37:04;;;;;;;13.68;7.03;;;;;;;;;;5030464;28;20110;-71
2022/10/11 01:39:45;;;;;;;15.27;7.78;;;;;;;;;;5029241;28;20049;-71
2022/10/11 01:42:12;;;;;;;17.58;7.22;;;;;;;;;;5029898;28;20042;-70
2022/10/11 01:44:41;;;;;;;13.35;7.95;;;;;;;;;;5028267;28;20132;-69
2022/10/11 01:47:07;;;;;;;17.05;8.05;;;;;;;;;;5030518;28;20045;-70
2022/10/11 01:49:33;;;;;;;21.02;8.75;;;;;;;;;;5028195;28;20649;-65
2022/10/11 01:52:04;;;;;;;18.08;8.90;;;;;;;;;;5029371;28;20053;-73
2022/10/11 01:54:38;;;;;;;14.98;8.85;;;;;;;;;;5027137;28;20050;-68
2022/10/11 01:57:41;;;;;;;15.68;8.82;;;;;;;;;;5025060;28;20137;-70
2022/10/11 02:00:32;;;;;;;15.60;9.23;;;;;;;;;;5024995;28;20049;-69
2022/10/11 02:03:31;;;;;;;16.80;9.43;;;;;;;;;;5026146;28;20095;-68
2022/10/11 02:06:12;;;;;;;21.45;10.45;;;;;;;;;;5028405;28;20048;-70
2022/10/11 02:08:58;;;;;;;22.90;10.25;;;;;;;;;;5016687;28;20050;-69
2022/10/11 02:11:28;;;;;;;19.60;10.27;;;;;;;;;;5024775;28;20584;-70
2022/10/11 02:13:54;;;;;;;18.77;10.85;;;;;;;;;;5016982;28;20042;-67
2022/10/11 02:16:26;;;;;;;21.58;11.50;;;;;;;;;;5025116;28;20037;-71
2022/10/11 02:18:53;;;;;;;23.58;10.73;;;;;;;;;;5025567;28;20514;-71
2022/10/11 02:21:22;;;;;;;20.75;10.68;;;;;;;;;;5011972;28;20041;-71
2022/10/11 02:23:54;;;;;;;21.90;10.60;;;;;;;;;;5026837;28;20076;-70
2022/10/11 02:26:23;;;;;;;18.30;10.48;;;;;;;;;;5027025;28;20474;-71
2022/10/11 02:28:53;;;;;;;17.23;10.70;;;;;;;;;;5023010;28;20045;-71
2022/10/11 02:31:20;;;;;;;18.15;10.13;;;;;;;;;;5023899;28;20052;-69
2022/10/11 02:34:04;;;;;;;16.77;10.38;;;;;;;;;;5017915;28;20318;-67
2022/10/11 02:36:42;;;;;;;17.60;10.05;;;;;;;;;;5027378;28;20518;-71
2022/10/11 02:39:16;;;;;;;24.35;10.65;;;;;;;;;;5014904;28;20046;-69
2022/10/11 02:41:42;;;;;;;19.52;9.90;;;;;;;;;;5023588;28;20045;-69
2022/10/11 02:44:25;;;;;;;16.23;9.50;;;;;;;;;;5028446;28;20045;-73
2022/10/11 02:46:52;;;;;;;19.17;9.38;;;;;;;;;;5022959;28;20057;-69
2022/10/11 02:49:18;;;;;;;14.98;8.80;;;;;;;;;;5031985;28;20049;-72
2022/10/11 02:51:44;;;;;;;16.65;8.98;;;;;;;;;;5027599;28;20061;-74
2022/10/11 02:54:10;;;;;;;13.50;7.75;;;;;;;;;;5022313;28;20072;-70
2022/10/11 02:56:36;;;;;;;17.33;8.27;;;;;;;;;;5024892;28;21748;-71
2022/10/11 02:59:02;;;;;;;15.68;8.13;;;;;;;;;;5025221;28;20049;-72
2022/10/11 03:01:28;;;;;;;12.68;6.70;;;;;;;;;;5025574;28;20053;-69
2022/10/11 03:03:54;;;;;;;13.70;6.75;;;;;;;;;;5026788;28;20277;-70
2022/10/11 03:06:19;;;;;;;14.43;7.18;;;;;;;;;;5027139;28;20049;-71
2022/10/11 03:08:45;;;;;;;12.88;6.50;;;;;;;;;;5015192;28;20058;-69
2022/10/11 03:11:11;;;;;;;12.93;6.40;;;;;;;;;;5022364;28;20488;-71
2022/10/11 03:13:37;;;;;;;12.05;6.13;;;;;;;;;;5026841;28;20073;-70
2022/10/11 03:16:03;;;;;;;11.65;5.72;;;;;;;;;;5026240;28;20401;-71
2022/10/11 03:18:28;;;;;;;8.70;5.45;;;;;;;;;;5024540;28;20052;-70
2022/10/11 03:20:55;;;;;;;14.38;5.63;;;;;;;;;;5028176;28;20045;-68
2022/10/11 03:23:20;;;;;;;9.75;5.53;;;;;;;;;;5025894;28;20119;-71
2022/10/11 03:25:46;;;;;;;14.32;5.68;;;;;;;;;;5015259;28;20049;-69
2022/10/11 03:28:12;;;;;;;11.13;6.20;;;;;;;;;;5024705;28;20049;-69
2022/10/11 03:30:38;;;;;;;10.80;5.47;;;;;;;;;;5025425;28;20038;-72
2022/10/11 03:33:04;;;;;;;11.80;6.18;;;;;;;;;;5026317;28;20127;-72
2022/10/11 03:35:29;;;;;;;14.43;5.70;;;;;;;;;;5025508;28;20048;-72
2022/10/11 03:37:55;;;;;;;13.07;5.97;;;;;;;;;;5023498;28;20422;-71
2022/10/11 03:40:21;;;;;;;11.45;5.18;;;;;;;;;;5026937;28;20045;-69
2022/10/11 03:42:47;;;;;;;10.75;5.90;;;;;;;;;;5025200;28;20403;-72
2022/10/11 03:45:13;;;;;;;12.38;5.75;;;;;;;;;;5026516;28;20049;-72
2022/10/11 03:47:39;;;;;;;9.52;5.30;;;;;;;;;;5028050;28;20053;-74
2022/10/11 03:50:06;;;;;;;14.35;5.47;;;;;;;;;;5028136;28;20057;-67
2022/10/11 03:52:32;;;;;;;9.77;5.28;;;;;;;;;;5026706;28;20132;-69
2022/10/11 03:54:58;;;;;;;12.18;5.72;;;;;;;;;;5027183;28;20645;-72
2022/10/11 03:57:24;;;;;;;9.48;5.18;;;;;;;;;;5020142;28;20174;-70
2022/10/11 03:59:50;;;;;;;8.73;6.00;;;;;;;;;;5017774;28;20508;-72
2022/10/11 04:02:15;;;;;;;11.70;5.53;;;;;;;;;;5029087;28;20049;-70
2022/10/11 04:04:41;;;;;;;8.73;5.25;;;;;;;;;;5029818;28;20473;-72
2022/10/11 04:07:07;;;;;;;9.88;5.18;;;;;;;;;;5027450;28;20057;-71
2022/10/11 04:09:33;;;;;;;8.63;4.72;;;;;;;;;;5027510;28;20051;-71
2022/10/11 04:11:59;;;;;;;13.82;5.80;;;;;;;;;;5026354;28;20041;-70
2022/10/11 04:14:25;;;;;;;8.57;4.80;;;;;;;;;;5026615;28;20077;-69
2022/10/11 04:16:51;;;;;;;12.07;5.55;;;;;;;;;;5021623;28;20073;-71
2022/10/11 04:19:17;;;;;;;10.75;5.25;;;;;;;;;;5026607;28;20137;-73
2022/10/11 04:21:43;;;;;;;9.63;4.75;;;;;;;;;;5027777;28;20049;-69
2022/10/11 04:24:10;;;;;;;10.20;4.47;;;;;;;;;;5021717;28;20550;-73
2022/10/11 04:26:36;;;;;;;12.88;5.35;;;;;;;;;;5020779;28;20136;-74
2022/10/11 04:29:03;;;;;;;12.25;4.88;;;;;;;;;;5028382;28;20049;-69
2022/10/11 04:31:29;;;;;;;10.63;5.50;;;;;;;;;;5027077;28;20033;-75
2022/10/11 04:33:55;;;;;;;10.48;5.07;;;;;;;;;;5032065;28;20055;-76
2022/10/11 04:36:22;;;;;;;9.88;5.18;;;;;;;;;;5030211;28;20057;-77
2022/10/11 04:38:48;;;;;;;12.07;4.80;;;;;;;;;;5029822;28;20049;-74
2022/10/11 04:41:15;;;;;;;15.07;6.07;;;;;;;;;;5026749;28;20076;-71
2022/10/11 04:43:41;;;;;;;12.25;4.78;;;;;;;;;;5031616;28;20060;-75
2022/10/11 04:46:07;;;;;;;10.43;4.47;;;;;;;;;;5028627;28;20443;-68
2022/10/11 04:48:33;;;;;;;10.48;4.45;;;;;;;;;;5022497;28;20191;-70
2022/10/11 04:50:59;;;;;;;8.52;4.43;;;;;;;;;;5029234;28;20166;-70
2022/10/11 04:53:25;;;;;;;8.75;4.57;;;;;;;;;;5024670;28;20045;-69
2022/10/11 04:55:59;;;;;;;14.82;5.05;;;;;;;;;;5029824;28;20053;-71
2022/10/11 04:58:27;;;;;;;13.43;6.43;;;;;;;;;;5022070;28;20038;-68
2022/10/11 05:00:53;;;;;;;11.45;4.80;;;;;;;;;;5018748;28;20054;-68
2022/10/11 05:03:19;;;;;;;16.98;5.20;;;;;;;;;;5021863;28;20458;-70
2022/10/11 05:05:45;;;;;;;11.68;5.15;;;;;;;;;;5030774;28;20077;-69
2022/10/11 05:08:11;;;;;;;8.70;5.28;;;;;;;;;;5029679;28;20466;-64
2022/10/11 05:10:37;;;;;;;11.68;4.88;;;;;;;;;;5021235;28;20514;-69
2022/10/11 05:13:03;;;;;;;13.02;5.28;;;;;;;;;;5027521;28;20046;-68
2022/10/11 05:15:29;;;;;;;9.80;5.22;;;;;;;;;;5025029;28;20041;-71
2022/10/11 05:17:54;;;;;;;11.23;4.47;;;;;;;;;;5026971;28;20041;-72
2022/10/11 05:20:20;;;;;;;13.07;4.93;;;;;;;;;;5027442;28;21041;-72
2022/10/11 05:22:46;;;;;;;12.05;5.30;;;;;;;;;;5024935;28;20058;-70
2022/10/11 05:25:12;;;;;;;9.70;4.45;;;;;;;;;;5024419;28;20073;-66
2022/10/11 05:27:37;;;;;;;9.40;4.80;;;;;;;;;;5019168;28;20114;-68
2022/10/11 05:30:04;;;;;;;9.23;4.47;;;;;;;;;;5023889;28;20042;-70
2022/10/11 05:32:30;;;;;;;9.63;4.47;;;;;;;;;;5022132;28;20042;-68
2022/10/11 05:34:56;;;;;;;14.02;5.22;;;;;;;;;;5020442;28;20187;-70
2022/10/11 05:37:22;;;;;;;16.52;4.90;;;;;;;;;;5028556;28;20127;-75
2022/10/11 05:39:48;;;;;;;10.90;4.63;;;;;;;;;;5028328;28;20069;-76
2022/10/11 05:42:14;;;;;;;9.15;3.80;;;;;;;;;;5035777;28;20073;-74
2022/10/11 05:44:40;;;;;;;9.43;3.92;;;;;;;;;;5041500;28;20045;-70
2022/10/11 05:47:06;;;;;;;8.90;3.60;;;;;;;;;;5030709;28;20403;-76
2022/10/11 05:49:31;;;;;;;9.15;3.63;;;;;;;;;;5026185;28;20049;-75
2022/10/11 05:51:57;;;;;;;7.25;3.63;;;;;;;;;;5030745;28;20041;-76
2022/10/11 05:54:23;;;;;;;8.60;3.75;;;;;;;;;;5031169;28;20064;-70
2022/10/11 05:56:49;;;;;;;9.25;3.50;;;;;;;;;;5030693;28;20458;-73
2022/10/11 05:59:15;;;;;;;9.27;3.70;;;;;;;;;;5028574;28;20054;-76
2022/10/11 06:01:40;;;;;;;12.65;3.45;;;;;;;;;;5030782;28;20045;-73
2022/10/11 06:04:07;;;;;;;7.57;3.35;;;;;;;;;;5027324;28;20060;-75
2022/10/11 06:06:32;;;;;;;7.47;3.47;;;;;;;;;;5030457;28;20153;-72
2022/10/11 06:08:58;;;;;;;9.95;3.90;;;;;;;;;;5030576;28;20120;-72
2022/10/11 06:11:26;;;;;;;10.13;3.70;;;;;;;;;;5031928;28;20053;-75
2022/10/11 06:13:59;;;;;;;7.55;3.20;;;;;;;;;;5034138;28;20050;-69
2022/10/11 06:16:25;;;;;;;8.48;3.60;;;;;;;;;;5028496;28;20128;-73
2022/10/11 06:18:55;;;;;;;7.97;3.47;;;;;;;;;;5032391;28;20069;-70
2022/10/11 06:21:22;;;;;;;7.80;3.60;;;;;;;;;;5027177;28;20515;-74
2022/10/11 06:23:50;;;;;;;7.45;3.65;;;;;;;;;;5032349;28;20132;-73
2022/10/11 06:26:17;;;;;;;9.65;3.15;;;;;;;;;;5020553;28;20041;-76
2022/10/11 06:28:43;;;;;;;9.13;3.55;;;;;;;;;;5024614;28;20287;-72
2022/10/11 06:31:10;;;;;;;8.25;3.47;;;;;;;;;;5021633;28;20041;-67
2022/10/11 06:33:35;;;;;;;8.70;3.05;;;;;;;;;;5021838;28;20091;-75
2022/10/11 06:36:08;;;;;;;6.05;3.08;;;;;;;;;;5021648;28;20053;-73
2022/10/11 06:38:34;;;;;;;9.27;3.00;;;;;;;;;;5019998;28;20132;-69
2022/10/11 06:41:18;;;;;;;7.10;2.90;;;;;;;;;;5020608;28;20117;-66
2022/10/11 06:43:44;;;;;;;5.60;2.70;;;;;;;;;;5020518;28;20041;-67
2022/10/11 06:46:11;;;;;;;8.82;3.40;;;;;;;;;;5025201;28;20384;-64
2022/10/11 06:48:42;;;;;;;5.80;3.38;;;;;;;;;;5023714;28;20268;-71
2022/10/11 06:51:09;;;;;;;6.63;3.05;;;;;;;;;;5024468;28;20495;-71
2022/10/11 06:53:35;;;;;;;8.30;2.83;;;;;;;;;;5020786;28;20058;-67
2022/10/11 06:56:05;;;;;;;7.82;2.75;;;;;;;;;;5022177;28;20060;-74
2022/10/11 06:58:31;;;;;;;7.28;2.72;;;;;;;;;;5021396;28;20065;-67
2022/10/11 07:01:01;;;;;;;7.88;2.60;;;;;;;;;;5019425;28;20056;-72
2022/10/11 07:03:28;;;;;;;6.43;2.70;;;;;;;;;;5017470;28;20045;-76
2022/10/11 07:06:02;;;;;;;9.70;2.97;;;;;;;;;;5020260;28;20050;-72
2022/10/11 07:08:28;;;;;;;5.40;2.95;;;;;;;;;;5016772;28;20851;-70
2022/10/11 07:10:59;;;;;;;6.85;2.85;;;;;;;;;;5009910;28;20053;-68
2022/10/11 07:13:26;;;;;;;5.13;2.45;;;;;;;;;;5018916;28;20521;-71
2022/10/11 07:15:51;;;;;;;6.15;2.75;;;;;;;;;;5012833;28;20050;-67
2022/10/11 07:18:17;;;;;;;8.35;3.60;;;;;;;;;;5016566;28;20057;-69
2022/10/11 07:20:43;;;;;;;6.97;2.60;;;;;;;;;;5015512;28;20601;-71
2022/10/11 07:23:09;;;;;;;9.98;2.45;;;;;;;;;;5013201;28;20061;-68
2022/10/11 07:25:35;;;;;;;5.65;2.47;;;;;;;;;;5014085;28;20137;-67
2022/10/11 07:28:16;;;;;;;6.20;2.25;;;;;;;;;;5016927;28;20049;-67
2022/10/11 07:30:43;;;;;;;8.57;2.45;;;;;;;;;;5019530;28;20056;-70
2022/10/11 07:33:09;;;;;;;3.55;2.10;;;;;;;;;;5017257;28;20314;-70
2022/10/11 07:35:36;;;;;;;6.40;2.25;;;;;;;;;;5012997;28;20442;-68
2022/10/11 07:38:02;;;;;;;7.20;2.50;;;;;;;;;;5016243;28;20049;-70
2022/10/11 07:40:29;;;;;;;5.93;2.20;;;;;;;;;;5017351;28;20060;-67
2022/10/11 07:42:56;;;;;;;6.53;2.60;;;;;;;;;;5016625;28;20045;-71
2022/10/11 07:45:27;;;;;;;3.58;2.15;;;;;;;;;;5016646;28;20710;-68
2022/10/11 07:47:57;;;;;;;4.38;2.42;;;;;;;;;;5017503;28;20233;-66
2022/10/11 07:50:23;;;;;;;4.95;2.35;;;;;;;;;;5017211;28;21881;-67
2022/10/11 07:52:49;;;;;;;10.10;2.53;;;;;;;;;;5011009;28;20165;-67
2022/10/11 07:55:15;;;;;;;6.50;2.50;;;;;;;;;;5012701;28;21087;-68
2022/10/11 07:57:41;;;;;;;8.38;2.97;;;;;;;;;;5018059;28;20128;-71
2022/10/11 08:00:07;;;;;;;5.05;2.22;;;;;;;;;;5016252;28;20045;-68
2022/10/11 08:02:33;;;;;;;5.25;2.50;;;;;;;;;;5016431;28;20050;-69
2022/10/11 08:04:59;;;;;;;9.75;2.90;;;;;;;;;;5013427;28;20059;-67
2022/10/11 08:07:27;;;;;;;11.13;5.07;;;;;;;;;;5017534;28;20049;-68
2022/10/11 08:09:52;;;;;;;8.45;3.35;;;;;;;;;;5018038;28;20052;-70
2022/10/11 08:12:18;;;;;;;6.07;2.90;;;;;;;;;;5018024;28;20053;-70
2022/10/11 08:14:44;;;;;;;5.75;2.30;;;;;;;;;;5014497;28;20057;-73
2022/10/11 08:17:10;;;;;;;5.25;2.22;;;;;;;;;;5016261;28;20045;-70
2022/10/11 08:19:36;;;;;;;6.15;2.60;;;;;;;;;;5016605;28;20045;-68
2022/10/11 08:22:02;;;;;;;7.55;2.30;;;;;;;;;;5012801;28;20060;-71
2022/10/11 08:24:28;;;;;;;8.98;2.97;;;;;;;;;;5016500;28;20046;-71
2022/10/11 08:26:54;;;;;;;5.20;2.60;;;;;;;;;;5016040;28;20057;-71
2022/10/11 08:29:20;;;;;;;6.50;2.40;;;;;;;;;;5014509;28;20143;-72
2022/10/11 08:31:46;;;;;;;6.80;2.20;;;;;;;;;;5013997;28;20096;-71
2022/10/11 08:34:12;;;;;;;7.40;2.10;;;;;;;;;;5018569;28;20045;-73
2022/10/11 08:36:38;;;;;;;6.45;2.00;;;;;;;;;;5020628;28;20052;-69
2022/10/11 08:39:05;;;;;;;7.82;2.20;;;;;;;;;;5025470;28;20495;-72
2022/10/11 08:42:00;;;;;;;5.57;2.40;;;;;;;;;;5015789;28;20038;-72
2022/10/11 08:44:35;;;;;;;;;;;;;;;;;;5006162;28;20064;-67
2022/10/11 08:47:09;;;;;;;5.68;2.40;;;;;;;;;;4997298;28;19929;-67
2022/10/11 08:49:36;;;;;;;7.05;2.58;;;;;;;;;;5001956;28;20058;-76
2022/10/11 08:52:09;;;;;;;6.32;2.05;;;;;;;;;;4995145;28;20045;-68
2022/10/11 08:54:46;;;;;;;4.10;2.17;;;;;;;;;;4992120;28;20482;-70
2022/10/11 08:57:34;;;;;;;4.78;2.42;;;;;;;;;;4993840;28;20065;-70
2022/10/11 09:00:04;;;;;;;6.05;2.45;;;;;;;;;;4994394;28;20048;-72
2022/10/11 09:02:57;;;;;;;7.45;2.75;;;;;;;;;;4994786;28;20062;-71
2022/10/11 09:05:30;;;;;;;8.57;2.22;;;;;;;;;;4995986;28;20050;-67
2022/10/11 09:08:21;;;;;;;6.50;2.42;;;;;;;;;;4992209;28;20058;-73
2022/10/11 09:10:55;;;;;;;7.55;2.40;;;;;;;;;;4994986;28;20064;-73
2022/10/11 09:13:32;;;;;;;4.85;2.10;;;;;;;;;;5000285;28;20054;-70
2022/10/11 09:16:07;;;;;;;6.70;2.17;;;;;;;;;;4997771;28;20058;-69
2022/10/11 09:18:45;;;;;;;4.88;2.25;;;;;;;;;;4999456;28;20846;-71
2022/10/11 09:21:35;;;;;;;7.32;2.20;;;;;;;;;;5011216;28;20059;-74
2022/10/11 09:24:08;;;;;;;6.28;2.50;;;;;;;;;;5019931;28;20346;-68
2022/10/11 09:27:04;;;;;;;8.10;2.38;;;;;;;;;;5018863;28;20701;-68
2022/10/11 09:30:00;;;;;;;14.70;2.70;;;;;;;;;;5021323;28;20593;-71
2022/10/11 09:32:31;;;;;;;9.93;3.03;;;;;;;;;;5026494;28;20256;-72
2022/10/11 09:35:18;;;;;;;9.02;2.90;;;;;;;;;;5027222;28;20053;-67
2022/10/11 09:38:01;;;;;;;7.47;2.50;;;;;;;;;;5022835;28;20059;-71
2022/10/11 09:40:57;;;;;;;7.72;2.40;;;;;;;;;;5026312;28;20349;-72
2022/10/11 09:43:23;;;;;;;8.52;2.50;;;;;;;;;;5028477;28;20064;-72
2022/10/11 09:45:49;;;;;;;5.20;2.40;;;;;;;;;;5023551;28;20057;-70
2022/10/11 09:48:24;;;;;;;10.48;2.90;;;;;;;;;;5021828;28;20067;-69
2022/10/11 09:50:53;;;;;;;7.55;2.92;;;;;;;;;;5023623;28;20045;-71
2022/10/11 09:53:20;;;;;;;11.52;2.88;;;;;;;;;;5020703;28;20168;-69
2022/10/11 09:56:00;;;;;;;5.88;2.20;;;;;;;;;;5016514;28;20061;-71
2022/10/11 09:58:34;;;;;;;6.80;2.63;;;;;;;;;;5018585;28;20132;-68
2022/10/11 10:01:06;;;;;;;7.30;2.70;;;;;;;;;;5019600;28;20045;-75
2022/10/11 10:03:34;;;;;;;6.80;2.35;;;;;;;;;;5022271;28;20049;-70
2022/10/11 10:06:20;;;;;;;4.20;2.17;;;;;;;;;;5019247;28;20041;-70
2022/10/11 10:08:46;;;;;;;8.07;2.70;;;;;;;;;;5019297;28;20057;-70
2022/10/11 10:11:14;;;;;;;7.80;2.72;;;;;;;;;;5023505;28;20610;-71
2022/10/11 10:13:51;;;;;;;6.72;2.30;;;;;;;;;;5020652;28;20054;-70
2022/10/11 10:16:19;;;;;;;8.32;2.70;;;;;;;;;;5021833;28;20049;-70
2022/10/11 10:18:56;;;;;;;7.75;3.30;;;;;;;;;;5021173;28;20065;-72
2022/10/11 10:21:31;;;;;;;8.85;2.72;;;;;;;;;;5024639;28;20065;-72
2022/10/11 10:24:01;;;;;;;8.55;2.80;;;;;;;;;;5021288;28;20057;-69
2022/10/11 10:26:28;;;;;;;5.68;2.58;;;;;;;;;;5018648;28;20052;-70
2022/10/11 10:29:09;;;;;;;6.75;2.53;;;;;;;;;;5021892;28;20053;-72
2022/10/11 10:31:52;;;;;;;14.43;2.83;;;;;;;;;;5022216;28;20046;-72
2022/10/11 10:34:25;;;;;;;5.95;2.42;;;;;;;;;;5023442;28;20061;-74
2022/10/11 10:36:55;;;;;;;10.13;2.70;;;;;;;;;;5022931;28;20064;-72
2022/10/11 10:39:32;;;;;;;7.30;2.80;;;;;;;;;;5018652;28;20057;-73
2022/10/11 10:42:02;;;;;;;7.25;3.28;;;;;;;;;;5021241;28;20557;-71
2022/10/11 10:44:28;;;;;;;8.60;3.47;;;;;;;;;;5023679;28;20049;-69
2022/10/11 10:47:03;;;;;;;8.75;3.28;;;;;;;;;;5021822;28;20045;-72
2022/10/11 10:49:32;;;;;;;9.48;3.47;;;;;;;;;;5022161;28;20060;-70
2022/10/11 10:52:09;;;;;;;7.68;2.80;;;;;;;;;;5024638;28;20482;-69
2022/10/11 10:54:51;;;;;;;9.93;3.40;;;;;;;;;;5020244;28;20399;-71
2022/10/11 10:57:40;;;;;;;5.72;2.58;;;;;;;;;;5017507;28;20057;-72
2022/10/11 11:00:20;;;;;;;13.77;5.63;;;;;;;;;;5017760;28;20049;-72
2022/10/11 11:03:27;;;;;;;8.10;3.35;;;;;;;;;;5016266;28;20053;-71
2022/10/11 11:06:08;;;;;;;11.50;3.00;;;;;;;;;;5013060;28;20474;-70
2022/10/11 11:09:13;;;;;;;12.63;3.42;;;;;;;;;;5017316;28;20057;-72
2022/10/11 11:11:55;;;;;;;9.02;3.72;;;;;;;;;;5014852;28;20052;-74
2022/10/11 11:14:38;;;;;;;10.57;4.65;;;;;;;;;;5015795;28;20096;-71
2022/10/11 11:17:37;;;;;;;15.52;4.40;;;;;;;;;;5012472;28;20510;-72
2022/10/11 11:20:23;;;;;;;7.97;3.28;;;;;;;;;;5012482;28;20153;-71
2022/10/11 11:23:06;;;;;;;10.27;3.22;;;;;;;;;;5020261;28;20115;-72
2022/10/11 11:25:47;;;;;;;11.32;3.60;;;;;;;;;;5010226;28;20049;-68
2022/10/11 11:28:33;;;;;;;9.07;3.65;;;;;;;;;;5017791;28;20057;-72
2022/10/11 11:31:11;;;;;;;11.85;3.30;;;;;;;;;;5016364;28;20045;-71
2022/10/11 11:34:07;;;;;;;8.38;3.50;;;;;;;;;;5014004;28;20368;-71
2022/10/11 11:36:51;;;;;;;11.50;3.30;;;;;;;;;;5014419;28;20045;-72
2022/10/11 11:39:24;;;;;;;8.63;3.40;;;;;;;;;;5015077;28;20099;-69
2022/10/11 11:41:58;;;;;;;12.27;4.00;;;;;;;;;;5014849;28;20095;-71
2022/10/11 11:44:30;;;;;;;10.20;3.97;;;;;;;;;;5016415;28;20068;-69
2022/10/11 11:47:05;;;;;;;7.20;3.45;;;;;;;;;;5017778;28;20404;-73
2022/10/11 11:49:58;;;;;;;8.77;3.55;;;;;;;;;;5017077;28;20137;-73
2022/10/11 11:52:42;;;;;;;10.50;3.42;;;;;;;;;;5016490;28;20057;-72
2022/10/11 11:55:29;;;;;;;;;;;;;;;;;;5018222;28;20045;-73
2022/10/11 11:57:54;;;;;;;15.23;3.67;;;;;;;;;;5015159;28;20067;-71
2022/10/11 12:00:25;;;;;;;10.95;3.60;;;;;;;;;;5019974;28;20064;-75
2022/10/11 12:03:00;;;;;;;8.93;3.33;;;;;;;;;;5015752;28;20050;-73
2022/10/11 12:05:30;;;;;;;7.15;3.30;;;;;;;;;;5019218;28;20116;-71
2022/10/11 12:08:00;;;;;;;11.27;3.70;;;;;;;;;;5017668;28;20106;-73
2022/10/11 12:10:37;;;;;;;8.48;3.28;;;;;;;;;;5019335;28;20115;-72
2022/10/11 12:13:24;;;;;;;10.30;3.88;;;;;;;;;;5019674;28;20073;-71
2022/10/11 12:15:59;;;;;;;17.55;6.18;;;;;;;;;;5012015;28;20064;-73
2022/10/11 12:18:26;;;;;;;11.77;4.03;;;;;;;;;;5016736;28;20068;-71
2022/10/11 12:21:20;;;;;;;13.35;3.78;;;;;;;;;;5017996;28;20331;-71
2022/10/11 12:23:52;;;;;;;7.43;3.63;;;;;;;;;;5027612;28;20085;-75
2022/10/11 12:26:28;;;;;;;12.85;3.22;;;;;;;;;;5023501;28;20061;-81
2022/10/11 12:29:21;;;;;;;7.60;3.60;;;;;;;;;;5029360;28;20041;-72
2022/10/11 12:31:58;;;;;;;6.85;3.30;;;;;;;;;;5024650;28;20045;-77
2022/10/11 12:34:35;;;;;;;9.55;3.08;;;;;;;;;;5029048;28;20056;-73
2022/10/11 12:37:24;;;;;;;6.68;2.78;;;;;;;;;;5014840;28;20060;-75
2022/10/11 12:39:55;;;;;;;11.90;2.90;;;;;;;;;;5011011;28;20353;-76
2022/10/11 12:42:21;;;;;;;8.25;2.90;;;;;;;;;;5021473;28;20137;-71
2022/10/11 12:45:12;;;;;;;8.40;2.78;;;;;;;;;;5016410;28;20264;-75
2022/10/11 12:48:01;;;;;;;9.43;3.25;;;;;;;;;;5020676;28;20674;-71
2022/10/11 12:50:36;;;;;;;10.88;2.60;;;;;;;;;;5027567;28;20053;-72
2022/10/11 12:53:31;;;;;;;8.43;3.08;;;;;;;;;;5025625;28;20045;-71
2022/10/11 12:56:03;;;;;;;7.63;3.08;;;;;;;;;;5022309;28;20280;-72
2022/10/11 12:58:37;;;;;;;8.15;2.63;;;;;;;;;;5026731;28;20474;-71
2022/10/11 13:01:03;;;;;;;7.90;3.17;;;;;;;;;;5025470;28;20045;-72
2022/10/11 13:03:36;;;;;;;10.48;2.90;;;;;;;;;;5021941;28;20119;-71
2022/10/11 13:06:17;;;;;;;9.95;3.25;;;;;;;;;;5020740;28;20045;-73
2022/10/11 13:08:49;;;;;;;7.88;3.10;;;;;;;;;;5020702;28;20058;-72
2022/10/11 13:11:20;;;;;;;11.13;3.33;;;;;;;;;;5021015;28;20629;-77
2022/10/11 13:13:54;;;;;;;7.63;3.13;;;;;;;;;;5022376;28;20406;-74
2022/10/11 13:16:41;;;;;;;10.07;3.10;;;;;;;;;;5014776;28;20238;-73
2022/10/11 13:19:12;;;;;;;8.02;3.03;;;;;;;;;;5021757;28;20144;-70
2022/10/11 13:21:38;;;;;;;9.52;2.97;;;;;;;;;;5021329;28;20054;-69
2022/10/11 13:24:18;;;;;;;11.98;3.30;;;;;;;;;;5021206;28;20049;-72
2022/10/11 13:26:46;;;;;;;10.43;3.33;;;;;;;;;;5024191;28;20061;-72
2022/10/11 13:29:25;;;;;;;8.90;2.83;;;;;;;;;;5019804;28;20145;-75
2022/10/11 13:31:51;;;;;;;9.57;3.15;;;;;;;;;;5016116;28;20487;-76
2022/10/11 13:34:17;;;;;;;8.25;3.35;;;;;;;;;;5019908;28;20049;-70
2022/10/11 13:36:43;;;;;;;11.63;3.53;;;;;;;;;;5015308;28;20052;-73
2022/10/11 13:39:29;;;;;;;8.35;3.42;;;;;;;;;;5017641;28;20045;-76
2022/10/11 13:41:56;;;;;;;8.88;3.50;;;;;;;;;;5019320;28;20053;-69
2022/10/11 13:44:24;;;;;;;9.50;3.50;;;;;;;;;;5024094;28;20104;-75
2022/10/11 13:46:51;;;;;;;12.88;4.30;;;;;;;;;;5020720;28;20056;-74
2022/10/11 13:49:37;;;;;;;8.18;3.28;;;;;;;;;;5016250;28;20796;-77
2022/10/11 13:52:26;;;;;;;9.85;3.08;;;;;;;;;;5013846;28;20057;-73
2022/10/11 13:54:52;;;;;;;9.32;3.40;;;;;;;;;;5023208;28;20180;-73
2022/10/11 13:57:30;;;;;;;10.20;3.45;;;;;;;;;;5015559;28;20061;-75
2022/10/11 13:59:56;;;;;;;8.38;3.17;;;;;;;;;;5018275;28;20067;-73
2022/10/11 14:02:24;;;;;;;8.52;3.45;;;;;;;;;;5020864;28;20045;-77
2022/10/11 14:04:50;;;;;;;10.52;3.40;;;;;;;;;;5022265;28;20169;-76
2022/10/11 14:07:34;;;;;;;12.60;3.50;;;;;;;;;;5021576;28;20133;-73
2022/10/11 14:10:01;;;;;;;10.43;3.00;;;;;;;;;;5021230;28;20037;-74
2022/10/11 14:12:43;;;;;;;10.30;3.47;;;;;;;;;;5021773;28;20396;-70
2022/10/11 14:15:22;;;;;;;10.02;3.30;;;;;;;;;;5015363;28;20049;-71
2022/10/11 14:17:50;;;;;;;9.95;3.30;;;;;;;;;;5020808;28;20045;-76
2022/10/11 14:20:39;;;;;;;9.40;3.40;;;;;;;;;;5019988;28;20087;-77
2022/10/11 14:23:06;;;;;;;10.27;3.40;;;;;;;;;;5014443;28;20059;-74
2022/10/11 14:25:33;;;;;;;11.90;4.35;;;;;;;;;;5014289;28;20049;-74
2022/10/11 14:27:59;;;;;;;12.68;3.92;;;;;;;;;;5021885;28;21040;-71
2022/10/11 14:30:26;;;;;;;6.70;3.92;;;;;;;;;;5020672;28;20057;-71
2022/10/11 14:32:55;;;;;;;11.50;3.72;;;;;;;;;;5016059;28;20053;-70
2022/10/11 14:35:24;;;;;;;14.55;4.95;;;;;;;;;;5018953;28;20335;-72
2022/10/11 14:37:51;;;;;;;11.38;4.63;;;;;;;;;;5019299;28;20361;-67
2022/10/11 14:40:23;;;;;;;11.43;4.57;;;;;;;;;;5018638;28;20115;-70
2022/10/11 14:42:49;;;;;;;16.85;4.90;;;;;;;;;;5019532;28;20100;-70
2022/10/11 14:45:16;;;;;;;14.43;4.35;;;;;;;;;;5016642;28;20065;-69
2022/10/11 14:47:42;;;;;;;13.90;4.70;;;;;;;;;;5015947;28;20052;-70
2022/10/11 14:50:52;;;;;;;17.73;5.45;;;;;;;;;;5015850;28;20045;-69
2022/10/11 14:53:17;;;;;;;11.02;3.20;;;;;;;;;;5016819;28;20057;-71
2022/10/11 14:55:43;;;;;;;12.27;3.63;;;;;;;;;;5023237;28;20075;-69
2022/10/11 14:58:12;;;;;;;9.20;2.80;;;;;;;;;;5019616;28;20037;-72
2022/10/11 15:00:38;;;;;;;7.72;2.90;;;;;;;;;;5019351;28;20037;-71
2022/10/11 15:03:06;;;;;;;10.85;3.08;;;;;;;;;;5022455;28;20146;-68
2022/10/11 15:05:33;;;;;;;11.15;3.35;;;;;;;;;;5018543;28;21133;-69